Seven Springs, North Carolina
Current Conditions -  °F | °C
As of 4:58 PM on Saturday 25 Oct 2014 (Local Time) from KGSB Reporting Station
Clear Clear  
Wind Chill: 71°   Ceiling: Unl
Heat Index: 71°   Visibility: 10mi
Dew Point: 47°   Wind: 7mph
Humidity: 42%   Direction: 270°W
Pressure: 29.88"   Gusts: NA
Location:  35.23°N, 77.85°W
Report Text: KGSB 252058Z AUTO 27006KT 10SM CLR 22/08 A2988 RMK AO2 SLP121 T02190084 57013 $
Loading
Personal Weather Stations






























Interactive Weather Map
Tropical Storm Tracking
New forecast layout! Learn more

10-Day Weather Forecast

Advertisements
Track Severe Weather on mobile